Time;durP1;ratioP1;P1;durP2;ratioP2;P2;SDS_P1;SDS_P2;PMS_P1;PMS_P2;Temp;Humidity;BMP_temperature;BMP_pressure;BME280_temperature;BME280_humidity;BME280_pressure;Samples;Min_cycle;Max_cycle;Signal;HPM_P1;HPM_P2
2023/12/11 00:00:35;;;;;;;8.65;4.10;;;6.80;1.00;;;;;;5129761;27;20293;-78
2023/12/11 00:03:03;;;;;;;12.50;4.15;;;6.80;1.00;;;;;;5128147;27;20241;-79
2023/12/11 00:05:30;;;;;;;10.90;4.10;;;6.70;1.00;;;;;;5126465;27;20626;-78
2023/12/11 00:07:58;;;;;;;8.55;3.92;;;6.70;1.00;;;;;;5129189;27;20276;-81
2023/12/11 00:10:25;;;;;;;11.27;4.05;;;6.70;1.00;;;;;;5128463;27;20225;-79
2023/12/11 00:12:52;;;;;;;9.63;4.20;;;6.70;1.00;;;;;;5128320;27;20243;-80
2023/12/11 00:15:20;;;;;;;7.17;3.27;;;6.70;1.00;;;;;;5123908;27;20456;-79
2023/12/11 00:17:48;;;;;;;15.23;3.73;;;6.70;1.00;;;;;;5126742;27;20575;-79
2023/12/11 00:20:15;;;;;;;8.27;4.03;;;6.70;1.00;;;;;;5129999;27;20522;-79
2023/12/11 00:22:42;;;;;;;7.70;2.97;;;6.70;1.00;;;;;;5128107;27;20278;-79
2023/12/11 00:25:13;;;;;;;8.23;3.87;;;6.70;1.00;;;;;;5130248;27;20461;-79
2023/12/11 00:27:40;;;;;;;11.23;3.97;;;6.70;1.00;;;;;;5131368;27;20562;-81
2023/12/11 00:30:10;;;;;;;9.70;3.65;;;6.70;1.00;;;;;;5130231;27;20244;-80
2023/12/11 00:32:38;;;;;;;7.25;3.30;;;6.70;1.00;;;;;;5130606;27;20300;-80
2023/12/11 00:35:06;;;;;;;9.25;3.75;;;6.70;1.00;;;;;;5112164;27;20232;-80
2023/12/11 00:37:33;;;;;;;9.85;4.75;;;6.70;1.00;;;;;;5124848;27;20234;-80
2023/12/11 00:40:02;;;;;;;12.65;4.80;;;6.60;1.00;;;;;;5128816;27;20658;-81
2023/12/11 00:42:30;;;;;;;19.70;5.83;;;6.60;1.00;;;;;;5125789;27;20244;-83
2023/12/11 00:44:58;;;;;;;15.07;5.30;;;6.60;1.00;;;;;;5126036;27;20466;-79
2023/12/11 00:47:26;;;;;;;9.25;4.60;;;6.60;1.00;;;;;;5126682;27;21007;-80
2023/12/11 00:49:53;;;;;;;11.07;4.20;;;6.60;1.00;;;;;;5110866;27;20309;-80
2023/12/11 00:52:23;;;;;;;11.85;4.32;;;6.60;1.00;;;;;;5131249;27;20290;-79
2023/12/11 00:54:53;;;;;;;14.50;4.60;;;6.60;1.00;;;;;;5125085;27;20281;-86
2023/12/11 00:57:22;;;;;;;9.43;4.40;;;6.60;1.00;;;;;;5131245;27;20477;-84
2023/12/11 00:59:50;;;;;;;9.25;3.25;;;6.50;1.00;;;;;;5138532;27;20271;-86
2023/12/11 01:02:18;;;;;;;12.52;3.95;;;6.50;1.00;;;;;;5138983;27;20238;-86
2023/12/11 01:04:45;;;;;;;9.60;4.45;;;6.50;1.00;;;;;;5140230;27;20262;-86
2023/12/11 01:07:12;;;;;;;9.85;4.57;;;6.50;1.00;;;;;;5136132;27;20244;-82
2023/12/11 01:09:41;;;;;;;11.45;3.85;;;6.40;1.00;;;;;;5136012;27;21211;-85
2023/12/11 01:12:08;;;;;;;7.22;3.83;;;6.50;1.00;;;;;;5135739;27;20228;-80
2023/12/11 01:14:37;;;;;;;6.88;3.92;;;6.50;1.00;;;;;;5129741;27;20231;-85
2023/12/11 01:17:06;;;;;;;8.63;3.35;;;6.50;1.00;;;;;;5136113;27;20234;-84
2023/12/11 01:19:33;;;;;;;6.72;2.75;;;6.50;1.00;;;;;;5133831;27;20236;-85
2023/12/11 01:22:00;;;;;;;11.63;3.75;;;6.50;1.00;;;;;;5132915;27;20223;-85
2023/12/11 01:24:27;;;;;;;11.55;3.97;;;6.50;1.00;;;;;;5135056;27;20235;-85
2023/12/11 01:26:54;;;;;;;12.63;3.10;;;6.50;1.00;;;;;;5134356;27;20688;-81
2023/12/11 01:29:21;;;;;;;6.45;3.25;;;6.50;1.00;;;;;;5132641;27;20233;-85
2023/12/11 01:31:48;;;;;;;9.83;3.53;;;6.50;1.00;;;;;;5132546;27;21062;-84
2023/12/11 01:34:16;;;;;;;7.47;3.85;;;6.50;1.00;;;;;;5133927;27;21283;-85
2023/12/11 01:36:43;;;;;;;9.57;4.30;;;6.50;1.00;;;;;;5135231;27;20241;-85
2023/12/11 01:39:10;;;;;;;8.68;3.47;;;6.50;1.00;;;;;;5146761;27;20233;-80
2023/12/11 01:41:38;;;;;;;6.43;2.90;;;6.50;1.00;;;;;;5155438;27;20226;-86
2023/12/11 01:44:05;;;;;;;7.15;4.32;;;6.50;1.00;;;;;;5155927;27;20236;-86
2023/12/11 01:46:32;;;;;;;9.68;3.47;;;6.50;1.00;;;;;;5153101;27;20242;-83
2023/12/11 01:49:00;;;;;;;9.45;3.95;;;6.50;1.00;;;;;;5152569;27;20303;-84
2023/12/11 01:51:28;;;;;;;9.52;4.22;;;6.60;1.00;;;;;;5147535;27;20261;-85
2023/12/11 01:53:56;;;;;;;9.80;3.45;;;6.60;1.00;;;;;;5157053;27;20237;-85
2023/12/11 01:56:25;;;;;;;7.13;3.60;;;6.60;1.00;;;;;;5160043;27;20240;-86
2023/12/11 01:58:52;;;;;;;8.80;2.90;;;6.50;1.00;;;;;;5154569;27;20232;-85
2023/12/11 02:01:24;;;;;;;10.57;2.95;;;6.60;1.00;;;;;;5155626;27;20305;-85
2023/12/11 02:03:52;;;;;;;5.45;2.85;;;6.60;1.00;;;;;;5161052;27;20236;-86
2023/12/11 02:06:19;;;;;;;6.35;3.50;;;6.60;1.00;;;;;;5155989;27;20211;-87
2023/12/11 02:08:51;;;;;;;8.40;3.83;;;6.60;1.00;;;;;;5157915;27;20235;-86
2023/12/11 02:11:20;;;;;;;10.50;3.75;;;6.60;1.00;;;;;;5148830;27;20249;-85
2023/12/11 02:13:47;;;;;;;8.55;3.05;;;6.60;1.00;;;;;;5155125;27;20229;-80
2023/12/11 02:16:18;;;;;;;8.88;3.55;;;6.60;1.00;;;;;;5153407;27;21054;-79
2023/12/11 02:18:45;;;;;;;9.13;3.50;;;6.70;1.00;;;;;;5152667;27;20224;-81
2023/12/11 02:21:13;;;;;;;11.35;3.25;;;6.70;1.00;;;;;;5131287;27;21031;-85
2023/12/11 02:23:48;;;;;;;10.98;3.53;;;6.70;1.00;;;;;;5158603;27;20723;-86
2023/12/11 02:26:18;;;;;;;8.88;3.60;;;6.80;1.00;;;;;;5152715;27;20232;-86
2023/12/11 02:28:46;;;;;;;9.00;3.83;;;6.80;1.00;;;;;;5150083;27;20235;-85
2023/12/11 02:31:15;;;;;;;9.18;4.28;;;6.80;1.00;;;;;;5143520;27;20247;-86
2023/12/11 02:33:42;;;;;;;6.53;3.70;;;6.90;1.00;;;;;;5157446;27;21877;-86
2023/12/11 02:36:10;;;;;;;7.20;3.97;;;6.90;1.00;;;;;;5155116;27;20237;-83
2023/12/11 02:38:37;;;;;;;8.10;3.58;;;6.90;1.00;;;;;;5145930;27;20701;-86
2023/12/11 02:41:05;;;;;;;8.05;3.72;;;6.90;1.00;;;;;;5124713;27;20238;-86
2023/12/11 02:43:34;;;;;;;6.10;3.40;;;6.90;1.00;;;;;;5135420;27;20243;-87
2023/12/11 02:46:03;;;;;;;9.17;3.50;;;7.00;1.00;;;;;;5123880;27;20429;-81
2023/12/11 02:48:30;;;;;;;10.70;3.45;;;7.00;1.00;;;;;;5133750;27;21331;-85
2023/12/11 02:50:57;;;;;;;11.30;3.50;;;7.00;1.00;;;;;;5126360;27;20631;-80
2023/12/11 02:53:28;;;;;;;6.20;3.90;;;7.10;1.00;;;;;;5132127;27;20220;-85
2023/12/11 02:55:55;;;;;;;10.80;4.30;;;7.20;1.00;;;;;;5134108;27;20523;-82
2023/12/11 02:58:22;;;;;;;6.90;3.47;;;7.20;1.00;;;;;;5135471;27;20468;-84
2023/12/11 03:00:50;;;;;;;8.60;3.30;;;7.20;1.00;;;;;;5137448;27;20460;-84
2023/12/11 03:03:18;;;;;;;12.47;3.33;;;7.20;1.00;;;;;;5137776;27;20426;-81
2023/12/11 03:05:45;;;;;;;7.17;4.80;;;7.30;1.00;;;;;;5134822;27;20468;-81
2023/12/11 03:08:12;;;;;;;6.07;2.72;;;7.30;1.00;;;;;;5128683;27;20570;-80
2023/12/11 03:10:39;;;;;;;7.87;3.30;;;7.30;1.00;;;;;;5121434;27;20239;-85
2023/12/11 03:13:07;;;;;;;6.17;3.27;;;7.30;1.00;;;;;;5126956;27;21243;-86
2023/12/11 03:15:34;;;;;;;5.87;3.40;;;7.40;1.00;;;;;;5133028;27;20470;-86
2023/12/11 03:18:05;;;;;;;6.15;3.55;;;7.50;1.00;;;;;;5130184;27;20450;-84
2023/12/11 03:20:32;;;;;;;6.27;3.03;;;7.50;1.00;;;;;;5141665;27;20260;-85
2023/12/11 03:22:59;;;;;;;5.60;3.00;;;7.50;1.00;;;;;;5136267;27;20497;-83
2023/12/11 03:25:26;;;;;;;7.95;3.40;;;7.50;1.00;;;;;;5136547;27;20510;-83
2023/12/11 03:27:53;;;;;;;7.28;2.75;;;7.50;1.00;;;;;;5135181;27;20938;-84
2023/12/11 03:30:20;;;;;;;5.70;2.77;;;7.50;1.00;;;;;;5131794;27;20231;-86
2023/12/11 03:32:47;;;;;;;8.00;2.90;;;7.60;1.00;;;;;;5134742;27;20437;-84
2023/12/11 03:35:18;;;;;;;7.53;2.87;;;7.60;1.00;;;;;;5132243;27;20499;-82
2023/12/11 03:37:45;;;;;;;6.20;2.83;;;7.60;1.00;;;;;;5130450;27;20459;-85
2023/12/11 03:40:13;;;;;;;4.27;2.80;;;7.60;1.00;;;;;;5155642;27;20468;-83
2023/12/11 03:42:41;;;;;;;6.00;3.33;;;7.70;1.00;;;;;;5155240;27;20423;-83
2023/12/11 03:45:09;;;;;;;7.20;2.50;;;7.70;1.00;;;;;;5151200;27;20415;-83
2023/12/11 03:47:37;;;;;;;6.50;3.00;;;7.70;1.00;;;;;;5152967;27;21416;-85
2023/12/11 03:50:05;;;;;;;6.93;3.00;;;7.80;1.00;;;;;;5146444;27;20473;-81
2023/12/11 03:52:34;;;;;;;5.83;2.47;;;7.80;1.00;;;;;;5149608;27;20553;-81
2023/12/11 03:55:02;;;;;;;6.43;2.73;;;7.80;1.00;;;;;;5145310;27;20473;-79
2023/12/11 03:57:30;;;;;;;7.20;4.77;;;7.90;1.00;;;;;;5148119;27;20452;-83
2023/12/11 03:59:57;;;;;;;4.60;2.50;;;7.90;1.00;;;;;;5153204;27;21247;-79
2023/12/11 04:02:24;;;;;;;6.40;3.40;;;7.90;1.00;;;;;;5151884;27;20452;-78
2023/12/11 04:04:52;;;;;;;10.30;3.50;;;7.90;1.00;;;;;;5148497;27;21277;-79
2023/12/11 04:07:20;;;;;;;9.77;3.80;;;7.90;1.00;;;;;;5143241;27;21335;-80
2023/12/11 04:09:50;;;;;;;8.47;3.60;;;8.00;1.00;;;;;;5141319;27;20458;-79
2023/12/11 04:12:17;;;;;;;5.20;3.33;;;8.00;1.00;;;;;;5147067;27;20557;-80
2023/12/11 04:14:44;;;;;;;7.53;3.50;;;8.00;1.00;;;;;;5150092;27;20460;-78
2023/12/11 04:17:11;;;;;;;8.33;3.50;;;8.00;1.00;;;;;;5148659;27;21199;-82
2023/12/11 04:19:39;;;;;;;8.93;3.20;;;8.00;1.00;;;;;;5151163;27;20463;-80
2023/12/11 04:22:06;;;;;;;8.67;3.30;;;8.00;1.00;;;;;;5145273;27;21211;-81
2023/12/11 04:24:35;;;;;;;5.43;3.50;;;8.10;1.00;;;;;;5128288;27;20463;-80
2023/12/11 04:27:04;;;;;;;8.10;3.37;;;8.10;1.00;;;;;;5150790;27;20457;-81
2023/12/11 04:29:34;;;;;;;8.17;4.10;;;8.10;1.00;;;;;;5139938;27;20448;-81
2023/12/11 04:32:01;;;;;;;7.50;3.03;;;8.10;1.00;;;;;;5144047;27;20467;-81
2023/12/11 04:34:28;;;;;;;6.07;3.40;;;8.20;1.00;;;;;;5149890;27;21234;-81
2023/12/11 04:36:56;;;;;;;6.35;3.88;;;8.20;1.00;;;;;;5146715;27;20839;-80
2023/12/11 04:39:23;;;;;;;4.97;3.10;;;8.20;1.00;;;;;;5128922;27;20763;-79
2023/12/11 04:41:50;;;;;;;7.77;4.33;;;8.20;1.00;;;;;;5126923;27;20575;-81
2023/12/11 04:44:18;;;;;;;8.27;3.93;;;8.30;1.00;;;;;;5127630;27;21238;-79
2023/12/11 04:46:45;;;;;;;12.87;4.27;;;8.20;1.00;;;;;;5127482;27;21248;-85
2023/12/11 04:49:14;;;;;;;9.50;3.70;;;8.30;1.00;;;;;;5133089;27;20487;-86
2023/12/11 04:51:40;;;;;;;12.73;4.07;;;8.30;1.00;;;;;;5133034;27;20460;-86
2023/12/11 04:54:08;;;;;;;6.10;3.67;;;8.30;1.00;;;;;;5133785;27;20475;-84
2023/12/11 04:56:35;;;;;;;12.53;4.30;;;8.30;1.00;;;;;;5133220;27;20456;-86
2023/12/11 04:59:02;;;;;;;10.07;6.23;;;8.30;1.00;;;;;;5130916;27;20495;-83
2023/12/11 05:01:33;;;;;;;11.07;4.43;;;8.30;1.00;;;;;;5130326;27;20473;-81
2023/12/11 05:04:00;;;;;;;7.70;3.53;;;8.30;1.00;;;;;;5122457;27;20465;-79
2023/12/11 05:06:28;;;;;;;7.67;3.80;;;8.30;1.00;;;;;;5116404;27;22386;-79
2023/12/11 05:08:56;;;;;;;9.57;3.57;;;8.20;1.00;;;;;;5125797;27;20487;-79
2023/12/11 05:11:26;;;;;;;4.80;3.10;;;8.20;1.00;;;;;;5130440;27;20459;-80
2023/12/11 05:13:53;;;;;;;9.40;3.50;;;8.20;1.00;;;;;;5122395;27;20792;-80
2023/12/11 05:16:20;;;;;;;12.53;4.10;;;8.20;1.00;;;;;;5124118;27;20440;-81
2023/12/11 05:18:50;;;;;;;8.83;3.87;;;8.20;1.00;;;;;;5128715;27;20536;-79
2023/12/11 05:21:17;;;;;;;11.40;3.80;;;8.20;1.00;;;;;;5129608;27;20460;-82
2023/12/11 05:23:45;;;;;;;11.13;3.90;;;8.20;1.00;;;;;;5113055;27;20486;-80
2023/12/11 05:26:19;;;;;;;9.70;4.10;;;8.20;1.00;;;;;;5128846;27;20462;-82
2023/12/11 05:28:50;;;;;;;8.63;3.80;;;8.20;1.00;;;;;;5128077;27;20581;-82
2023/12/11 05:31:17;;;;;;;15.23;4.63;;;8.20;1.00;;;;;;5110356;27;20458;-81
2023/12/11 05:33:46;;;;;;;11.67;4.40;;;8.10;1.00;;;;;;5125030;27;21347;-81
2023/12/11 05:36:15;;;;;;;6.07;4.10;;;8.10;1.00;;;;;;5123277;27;21233;-80
2023/12/11 05:38:42;;;;;;;11.30;5.57;;;8.10;1.00;;;;;;5131095;27;20460;-80
2023/12/11 05:41:09;;;;;;;9.47;3.97;;;8.20;1.00;;;;;;5132877;27;20457;-79
2023/12/11 05:43:36;;;;;;;6.63;3.80;;;8.20;1.00;;;;;;5122219;27;20488;-80
2023/12/11 05:46:04;;;;;;;9.07;3.90;;;8.20;1.00;;;;;;5130114;27;20613;-81
2023/12/11 05:48:42;;;;;;;7.43;4.30;;;8.20;1.00;;;;;;5118847;27;20471;-83
2023/12/11 05:51:11;;;;;;;12.23;3.73;;;8.20;1.00;;;;;;5130286;27;20468;-82
2023/12/11 05:53:40;;;;;;;5.60;3.50;;;8.20;1.00;;;;;;5114513;27;20477;-81
2023/12/11 05:56:09;;;;;;;10.47;4.00;;;8.20;1.00;;;;;;5134009;27;20989;-81
2023/12/11 05:58:38;;;;;;;8.40;3.60;;;8.20;1.00;;;;;;5129028;27;20457;-79
2023/12/11 06:01:06;;;;;;;6.63;4.00;;;8.20;1.00;;;;;;5137777;27;20524;-80
2023/12/11 06:03:34;;;;;;;7.90;3.77;;;8.20;1.00;;;;;;5127804;27;20468;-80
2023/12/11 06:06:01;;;;;;;6.33;3.40;;;8.20;1.00;;;;;;5132323;27;20461;-85
2023/12/11 06:08:28;;;;;;;8.80;3.37;;;8.20;1.00;;;;;;5131489;27;21000;-82
2023/12/11 06:10:58;;;;;;;10.10;3.93;;;8.20;1.00;;;;;;5136632;27;21170;-86
2023/12/11 06:13:25;;;;;;;6.43;3.73;;;8.20;1.00;;;;;;5129137;27;20447;-83
2023/12/11 06:15:53;;;;;;;6.67;3.40;;;8.20;1.00;;;;;;5134480;27;20453;-83
2023/12/11 06:18:21;;;;;;;6.87;3.50;;;8.10;1.00;;;;;;5138396;27;20461;-83
2023/12/11 06:20:48;;;;;;;9.23;3.90;;;8.10;1.00;;;;;;5134652;27;20549;-86
2023/12/11 06:23:15;;;;;;;5.53;3.13;;;8.10;1.00;;;;;;5139196;27;20502;-84
2023/12/11 06:25:43;;;;;;;10.15;3.83;;;8.10;1.00;;;;;;5138407;27;20474;-85
2023/12/11 06:28:11;;;;;;;8.47;3.70;;;8.10;1.00;;;;;;5122526;27;20242;-81
2023/12/11 06:30:41;;;;;;;8.30;3.57;;;8.10;1.00;;;;;;5128302;27;20441;-81
2023/12/11 06:33:08;;;;;;;3.83;3.43;;;8.10;1.00;;;;;;5131031;27;20564;-80
2023/12/11 06:35:35;;;;;;;8.30;3.38;;;8.10;1.00;;;;;;5130718;27;20479;-80
2023/12/11 06:38:02;;;;;;;9.07;3.43;;;8.10;1.00;;;;;;5115046;27;20237;-79
2023/12/11 06:40:31;;;;;;;8.40;3.90;;;8.10;1.00;;;;;;5123420;27;20503;-79
2023/12/11 06:42:58;;;;;;;8.70;3.50;;;8.10;1.00;;;;;;5124587;27;20555;-79
2023/12/11 06:45:27;;;;;;;7.50;3.70;;;8.10;1.00;;;;;;5125308;27;20449;-82
2023/12/11 06:47:54;;;;;;;9.77;3.90;;;8.10;1.00;;;;;;5129120;27;21283;-83
2023/12/11 06:50:21;;;;;;;7.83;3.63;;;8.10;1.00;;;;;;5124970;27;20455;-80
2023/12/11 06:52:48;;;;;;;9.87;4.70;;;8.10;1.00;;;;;;5108050;27;21356;-81
2023/12/11 06:55:16;;;;;;;8.07;3.90;;;8.10;1.00;;;;;;5127076;27;20531;-83
2023/12/11 06:57:44;;;;;;;8.83;3.57;;;8.20;1.00;;;;;;5122825;27;21099;-84
2023/12/11 07:00:11;;;;;;;9.20;3.67;;;8.20;1.00;;;;;;5126210;27;20953;-78
2023/12/11 07:02:41;;;;;;;10.33;4.20;;;8.20;1.00;;;;;;5126525;27;20478;-79
2023/12/11 07:05:09;;;;;;;4.07;3.67;;;8.30;1.00;;;;;;5123357;27;20456;-79
2023/12/11 07:07:36;;;;;;;6.82;3.13;;;8.30;1.00;;;;;;5122459;27;20451;-80
2023/12/11 07:10:06;;;;;;;9.13;3.90;;;8.30;1.00;;;;;;5122231;27;20297;-80
2023/12/11 07:12:33;;;;;;;10.43;4.10;;;8.30;1.00;;;;;;5128309;27;20452;-82
2023/12/11 07:15:01;;;;;;;8.57;3.80;;;8.30;1.00;;;;;;5129629;27;20547;-82
2023/12/11 07:17:28;;;;;;;5.97;3.60;;;8.30;1.00;;;;;;5120987;27;20973;-81
2023/12/11 07:19:57;;;;;;;8.60;3.93;;;8.30;1.00;;;;;;5130358;27;20434;-83
2023/12/11 07:22:25;;;;;;;7.60;4.17;;;8.30;1.00;;;;;;5125871;27;20460;-83
2023/12/11 07:24:52;;;;;;;8.20;3.10;;;8.30;1.00;;;;;;5134150;27;21077;-80
2023/12/11 07:27:20;;;;;;;6.00;2.77;;;8.30;1.00;;;;;;5129454;27;20466;-81
2023/12/11 07:29:49;;;;;;;4.17;3.03;;;8.30;1.00;;;;;;5105643;27;20460;-80
2023/12/11 07:32:17;;;;;;;6.40;3.77;;;8.30;1.00;;;;;;5125547;27;20928;-79
2023/12/11 07:34:44;;;;;;;8.13;3.23;;;8.30;1.00;;;;;;5104278;27;20421;-81
2023/12/11 07:37:12;;;;;;;5.03;2.43;;;8.30;1.00;;;;;;5122185;27;20464;-79
2023/12/11 07:39:41;;;;;;;7.83;2.97;;;8.30;1.00;;;;;;5136136;27;20467;-79
2023/12/11 07:42:08;;;;;;;4.53;2.63;;;8.30;1.00;;;;;;5144067;27;20476;-78
2023/12/11 07:44:36;;;;;;;4.93;3.70;;;8.30;1.00;;;;;;5140393;27;20462;-81
2023/12/11 07:47:04;;;;;;;6.67;2.70;;;8.40;1.00;;;;;;5143148;27;20535;-79
2023/12/11 07:49:31;;;;;;;3.93;2.67;;;8.30;1.00;;;;;;5142116;27;20432;-78
2023/12/11 07:52:01;;;;;;;3.20;2.50;;;8.30;1.00;;;;;;5143909;27;21272;-79
2023/12/11 07:54:30;;;;;;;7.33;2.90;;;8.30;1.00;;;;;;5141259;27;20540;-81
2023/12/11 07:56:58;;;;;;;8.83;3.53;;;8.30;1.00;;;;;;5147533;27;20973;-81
2023/12/11 07:59:25;;;;;;;7.93;3.03;;;8.40;1.00;;;;;;5141849;27;21168;-79
2023/12/11 08:01:53;;;;;;;6.70;2.50;;;8.40;1.00;;;;;;5142316;27;20460;-81
2023/12/11 08:04:20;;;;;;;8.30;3.20;;;8.40;1.00;;;;;;5141892;27;20466;-81
2023/12/11 08:06:47;;;;;;;7.43;3.03;;;8.40;1.00;;;;;;5144704;27;20459;-79
2023/12/11 08:09:15;;;;;;;8.83;3.43;;;8.40;1.00;;;;;;5137856;27;20477;-81
2023/12/11 08:11:43;;;;;;;6.37;2.93;;;8.40;1.00;;;;;;5133428;27;21288;-79
2023/12/11 08:14:11;;;;;;;8.83;3.70;;;8.40;1.00;;;;;;5142990;27;20459;-80
2023/12/11 08:16:38;;;;;;;4.40;2.77;;;8.40;1.00;;;;;;5145836;27;20857;-80
2023/12/11 08:19:05;;;;;;;6.80;2.93;;;8.50;1.00;;;;;;5145423;27;20800;-79
2023/12/11 08:21:33;;;;;;;6.67;2.63;;;8.50;1.00;;;;;;5124732;27;20452;-81
2023/12/11 08:24:01;;;;;;;8.07;2.80;;;8.50;1.00;;;;;;5143792;27;20468;-79
2023/12/11 08:26:28;;;;;;;7.40;2.83;;;8.50;1.00;;;;;;5124209;27;20953;-78
2023/12/11 08:28:57;;;;;;;5.80;2.63;;;8.60;1.00;;;;;;5143251;27;20536;-79
2023/12/11 08:31:27;;;;;;;6.47;2.67;;;8.70;1.00;;;;;;5143158;27;20436;-78
2023/12/11 08:33:54;;;;;;;5.70;2.87;;;8.70;1.00;;;;;;5136350;27;20441;-78
2023/12/11 08:36:21;;;;;;;7.97;3.03;;;8.80;1.00;;;;;;5142676;27;20507;-81
2023/12/11 08:38:48;;;;;;;6.70;2.73;;;8.80;1.00;;;;;;5126733;27;20550;-78
2023/12/11 08:41:17;;;;;;;6.80;2.70;;;8.80;1.00;;;;;;5121221;27;20481;-79
2023/12/11 08:43:46;;;;;;;8.63;2.90;;;8.80;1.00;;;;;;5138059;27;20432;-78
2023/12/11 08:46:15;;;;;;;7.33;3.23;;;8.80;1.00;;;;;;5145432;27;20459;-76
2023/12/11 08:48:44;;;;;;;7.73;3.33;;;8.80;1.00;;;;;;5138623;27;20994;-80
2023/12/11 08:51:14;;;;;;;10.50;3.13;;;8.80;1.00;;;;;;5141217;27;20484;-80
2023/12/11 08:53:44;;;;;;;7.80;3.30;;;8.80;1.00;;;;;;5148223;27;20440;-83
2023/12/11 08:56:11;;;;;;;6.03;3.07;;;8.70;1.00;;;;;;5148615;27;20448;-81
2023/12/11 08:58:40;;;;;;;7.60;2.63;;;8.70;1.00;;;;;;5128969;27;21286;-79
2023/12/11 09:01:11;;;;;;;8.90;2.87;;;8.80;1.00;;;;;;5137285;27;20930;-80
2023/12/11 09:03:40;;;;;;;8.47;3.80;;;8.80;1.00;;;;;;5129672;27;20451;-83
2023/12/11 09:06:07;;;;;;;6.40;3.30;;;8.80;1.00;;;;;;5136285;27;20433;-81
2023/12/11 09:08:35;;;;;;;4.97;3.00;;;8.90;1.00;;;;;;5139228;27;20451;-82
2023/12/11 09:11:03;;;;;;;11.90;3.83;;;8.90;1.00;;;;;;5150155;27;20476;-82
2023/12/11 09:13:32;;;;;;;5.87;2.90;;;8.90;1.00;;;;;;5148010;27;20440;-80
2023/12/11 09:15:59;;;;;;;8.83;3.97;;;8.90;1.00;;;;;;5145226;27;20463;-81
2023/12/11 09:18:27;;;;;;;8.63;3.10;;;8.90;1.00;;;;;;5128356;27;21089;-82
2023/12/11 09:20:55;;;;;;;11.30;3.10;;;8.90;1.00;;;;;;5144564;27;20760;-81
2023/12/11 09:23:23;;;;;;;12.20;3.10;;;8.90;1.00;;;;;;5143496;27;20440;-81
2023/12/11 09:25:52;;;;;;;8.07;3.20;;;8.90;1.00;;;;;;5148087;27;20466;-81
2023/12/11 09:28:21;;;;;;;6.97;3.20;;;8.80;1.00;;;;;;5151491;27;21188;-82
2023/12/11 09:30:50;;;;;;;8.73;4.03;;;8.80;1.00;;;;;;5135808;27;21289;-80
2023/12/11 09:33:17;;;;;;;9.80;3.63;;;8.80;1.00;;;;;;5146667;27;20451;-85
2023/12/11 09:35:47;;;;;;;11.77;3.90;;;8.80;1.00;;;;;;5155169;27;21056;-84
2023/12/11 09:38:15;;;;;;;8.77;3.50;;;8.70;1.00;;;;;;5153478;27;20484;-83
2023/12/11 09:40:45;;;;;;;6.77;2.77;;;8.70;1.00;;;;;;5149634;27;20521;-83
2023/12/11 09:43:12;;;;;;;8.53;3.40;;;8.70;1.00;;;;;;5148785;27;20866;-82
2023/12/11 09:45:40;;;;;;;7.90;3.47;;;8.70;1.00;;;;;;5156438;27;21303;-84
2023/12/11 09:48:08;;;;;;;8.17;3.00;;;8.70;1.00;;;;;;5136404;27;20425;-80
2023/12/11 09:50:38;;;;;;;9.60;3.20;;;8.70;1.00;;;;;;5151137;27;20455;-84
2023/12/11 09:53:06;;;;;;;9.50;4.53;;;8.70;1.00;;;;;;5147711;27;20444;-82
2023/12/11 09:55:36;;;;;;;7.10;3.27;;;8.80;1.00;;;;;;5141021;27;20476;-84
2023/12/11 09:58:04;;;;;;;6.53;2.73;;;8.90;1.00;;;;;;5149500;27;20409;-83
2023/12/11 10:00:32;;;;;;;7.97;2.77;;;8.90;1.00;;;;;;5145481;27;20444;-83
2023/12/11 10:03:05;;;;;;;7.80;3.20;;;9.00;1.00;;;;;;5147582;27;22830;-82
2023/12/11 10:05:34;;;;;;;8.83;3.60;;;8.90;1.00;;;;;;5138329;27;20565;-80
2023/12/11 10:08:02;;;;;;;12.63;5.50;;;8.90;1.00;;;;;;5149121;27;20474;-81
2023/12/11 10:10:31;;;;;;;8.40;2.40;;;8.90;1.00;;;;;;5129516;27;20471;-79
2023/12/11 10:13:03;;;;;;;7.73;2.97;;;8.80;1.00;;;;;;5150669;27;20519;-79
2023/12/11 10:15:32;;;;;;;12.80;2.87;;;8.80;1.00;;;;;;5117022;27;20452;-82
2023/12/11 10:18:03;;;;;;;11.97;3.97;;;8.80;1.00;;;;;;5137607;27;21235;-86
2023/12/11 10:20:31;;;;;;;10.50;3.70;;;8.80;1.00;;;;;;5139361;27;20465;-79
2023/12/11 10:22:59;;;;;;;7.60;2.97;;;8.80;1.00;;;;;;5135323;27;20444;-79
2023/12/11 10:25:27;;;;;;;9.13;3.50;;;8.80;1.00;;;;;;5138514;27;20456;-80
2023/12/11 10:28:15;;;;;;;9.37;3.63;;;8.80;1.00;;;;;;5141650;27;20476;-78
2023/12/11 10:30:56;;;;;;;9.77;3.50;;;8.70;1.00;;;;;;5132579;27;20469;-79
2023/12/11 10:33:25;;;;;;;7.60;3.50;;;8.70;1.00;;;;;;5148295;27;20977;-82
2023/12/11 10:35:52;;;;;;;9.40;3.63;;;8.70;1.00;;;;;;5150371;27;20455;-82
2023/12/11 10:38:22;;;;;;;9.23;3.10;;;8.70;1.00;;;;;;5139199;27;20456;-82
2023/12/11 10:40:51;;;;;;;8.97;2.93;;;8.70;1.00;;;;;;5136343;27;21307;-83
2023/12/11 10:43:20;;;;;;;6.93;2.73;;;8.70;1.00;;;;;;5148303;27;20459;-81
2023/12/11 10:45:47;;;;;;;8.43;4.13;;;8.70;1.00;;;;;;5139175;27;20456;-80
2023/12/11 10:48:14;;;;;;;5.17;2.80;;;8.60;1.00;;;;;;5147881;27;21325;-83
2023/12/11 10:50:43;;;;;;;9.13;3.90;;;8.60;1.00;;;;;;5144260;27;20470;-83
2023/12/11 10:53:10;;;;;;;9.90;4.03;;;8.60;1.00;;;;;;5150597;27;20467;-81
2023/12/11 10:55:38;;;;;;;4.50;2.73;;;8.70;1.00;;;;;;5145493;27;20460;-82
2023/12/11 10:58:08;;;;;;;7.33;3.00;;;8.70;1.00;;;;;;5151738;27;20459;-84
2023/12/11 11:00:40;;;;;;;12.40;3.40;;;8.70;1.00;;;;;;5155017;27;20460;-83
2023/12/11 11:03:10;;;;;;;8.73;3.80;;;8.70;1.00;;;;;;5151665;27;20448;-83
2023/12/11 11:05:38;;;;;;;8.50;2.67;;;8.70;1.00;;;;;;5155685;27;20530;-82
2023/12/11 11:08:27;;;;;;;5.93;3.67;;;8.70;1.00;;;;;;5156007;27;20447;-84
2023/12/11 11:10:59;;;;;;;5.60;2.53;;;8.80;1.00;;;;;;5155125;27;20616;-83
2023/12/11 11:13:33;;;;;;;7.23;3.33;;;8.80;1.00;;;;;;5151354;27;20431;-84
2023/12/11 11:16:02;;;;;;;7.03;3.07;;;8.80;1.00;;;;;;5155304;27;20452;-84
2023/12/11 11:18:29;;;;;;;4.03;2.50;;;8.80;1.00;;;;;;5153388;27;20412;-85
2023/12/11 11:21:11;;;;;;;10.20;4.07;;;8.90;1.00;;;;;;5158467;27;21342;-84
2023/12/11 11:23:46;;;;;;;9.90;3.60;;;8.90;1.00;;;;;;5147844;27;20457;-83
2023/12/11 11:26:33;;;;;;;7.80;4.00;;;9.00;1.00;;;;;;5153389;27;20542;-79
2023/12/11 11:29:00;;;;;;;5.67;3.20;;;9.00;1.00;;;;;;5153496;27;20495;-83
2023/12/11 11:32:00;;;;;;;9.27;3.50;;;8.90;1.00;;;;;;5148940;27;20483;-83
2023/12/11 11:34:46;;;;;;;8.23;3.40;;;9.00;1.00;;;;;;5144619;27;20464;-81
2023/12/11 11:37:17;;;;;;;9.30;3.50;;;9.20;1.00;;;;;;5148936;27;20455;-80
2023/12/11 11:40:00;;;;;;;7.57;3.87;;;9.40;1.00;;;;;;5151216;27;20994;-83
2023/12/11 11:42:29;;;;;;;7.63;4.00;;;9.50;1.00;;;;;;5147944;27;20463;-82
2023/12/11 11:44:57;;;;;;;8.33;3.70;;;9.50;1.00;;;;;;5146450;27;20508;-82
2023/12/11 11:47:27;;;;;;;5.33;3.20;;;9.60;1.00;;;;;;5129716;27;20534;-83
2023/12/11 11:49:55;;;;;;;8.10;3.33;;;9.70;1.00;;;;;;5149211;27;20468;-82
2023/12/11 11:52:27;;;;;;;6.10;3.50;;;9.70;1.00;;;;;;5151674;27;20436;-81
2023/12/11 11:54:58;;;;;;;5.07;3.67;;;9.70;1.00;;;;;;5138354;27;20466;-79
2023/12/11 11:57:28;;;;;;;9.40;3.97;;;9.80;1.00;;;;;;5130557;27;20968;-82
2023/12/11 11:59:55;;;;;;;7.23;4.60;;;9.80;1.00;;;;;;5143353;27;20452;-82
2023/12/11 12:02:23;;;;;;;6.87;3.50;;;9.80;1.00;;;;;;5146380;27;20999;-83
2023/12/11 12:04:51;;;;;;;10.80;3.23;;;9.70;1.00;;;;;;5142921;27;20468;-79
2023/12/11 12:07:19;;;;;;;5.77;2.93;;;9.70;1.00;;;;;;5143137;27;20475;-81
2023/12/11 12:09:52;;;;;;;9.83;3.77;;;9.60;1.00;;;;;;5116817;27;20455;-80
2023/12/11 12:12:19;;;;;;;8.90;3.57;;;9.60;1.00;;;;;;5154913;27;20556;-80
2023/12/11 12:14:46;;;;;;;8.67;3.53;;;9.70;1.00;;;;;;5149854;27;20539;-82
2023/12/11 12:17:14;;;;;;;9.13;3.00;;;9.70;1.00;;;;;;5151147;27;20479;-82
2023/12/11 12:19:44;;;;;;;7.30;3.47;;;9.60;1.00;;;;;;5153490;27;20518;-82
2023/12/11 12:22:14;;;;;;;11.13;3.97;;;9.60;1.00;;;;;;5155489;27;20440;-81
2023/12/11 12:24:42;;;;;;;10.30;3.70;;;9.70;1.00;;;;;;5156611;27;20436;-84
2023/12/11 12:27:13;;;;;;;10.10;2.73;;;9.80;1.00;;;;;;5153998;27;20460;-83
2023/12/11 12:29:42;;;;;;;6.57;3.07;;;9.70;1.00;;;;;;5154420;27;21429;-84
2023/12/11 12:32:10;;;;;;;9.93;4.27;;;9.60;1.00;;;;;;5152009;27;20472;-81
2023/12/11 12:34:39;;;;;;;12.90;3.50;;;9.60;1.00;;;;;;5149986;27;20533;-81
2023/12/11 12:37:07;;;;;;;7.87;3.17;;;9.60;1.00;;;;;;5150308;27;20488;-79
2023/12/11 12:39:38;;;;;;;8.00;3.43;;;9.60;1.00;;;;;;5144683;27;20440;-79
2023/12/11 12:42:06;;;;;;;8.50;3.37;;;9.50;1.00;;;;;;5145580;27;20507;-80
2023/12/11 12:44:39;;;;;;;5.53;2.43;;;9.50;1.00;;;;;;5147110;27;21050;-82
2023/12/11 12:47:10;;;;;;;11.63;3.73;;;9.60;1.00;;;;;;5148748;27;20428;-79
2023/12/11 12:49:36;;;;;;;8.10;4.40;;;9.60;1.00;;;;;;5149148;27;20428;-82
2023/12/11 12:52:04;;;;;;;8.77;4.10;;;9.60;1.00;;;;;;5148168;27;20462;-80
2023/12/11 12:54:48;;;;;;;8.40;4.27;;;9.70;1.00;;;;;;5143535;27;20522;-80
2023/12/11 12:57:16;;;;;;;4.87;3.03;;;9.60;1.00;;;;;;5142948;27;20511;-78
2023/12/11 12:59:43;;;;;;;7.43;2.80;;;9.70;1.00;;;;;;5145321;27;20516;-84
2023/12/11 13:02:14;;;;;;;8.10;3.40;;;9.70;1.00;;;;;;5146722;27;20518;-81
2023/12/11 13:04:51;;;;;;;7.07;3.50;;;9.80;1.00;;;;;;5147387;27;20994;-82
2023/12/11 13:07:19;;;;;;;9.33;3.73;;;9.90;1.00;;;;;;5145444;27;20456;-80
2023/12/11 13:09:47;;;;;;;6.70;3.80;;;10.00;1.00;;;;;;5148951;27;20476;-82
2023/12/11 13:12:20;;;;;;;7.87;3.57;;;10.00;1.00;;;;;;5143629;27;20464;-82